createdAt,value
2023-03-22T00:00:12.895Z,93.00
2023-03-22T00:00:44.683Z,88.33
2023-03-22T00:01:19.906Z,86.33
2023-03-22T00:01:53.810Z,85.00
2023-03-22T00:02:26.438Z,84.00
2023-03-22T00:02:58.375Z,84.00
2023-03-22T00:03:30.379Z,84.00
2023-03-22T00:04:02.250Z,84.67
2023-03-22T00:04:34.069Z,85.00
2023-03-22T00:05:06.424Z,85.00
2023-03-22T00:05:40.068Z,85.33
2023-03-22T00:06:12.505Z,86.67
2023-03-22T00:06:44.250Z,88.00
2023-03-22T00:07:15.986Z,88.00
2023-03-22T00:07:50.386Z,88.00
2023-03-22T00:08:22.134Z,88.00
2023-03-22T00:08:54.642Z,88.00
2023-03-22T00:09:26.467Z,88.00
2023-03-22T00:09:58.230Z,89.33
2023-03-22T00:10:30.001Z,93.00
2023-03-22T00:11:02.709Z,93.67
2023-03-22T00:11:34.630Z,93.00
2023-03-22T00:12:06.640Z,91.67
2023-03-22T00:12:38.371Z,90.33
2023-03-22T00:13:11.586Z,88.00
2023-03-22T00:13:44.045Z,86.00
2023-03-22T00:14:15.889Z,84.67
2023-03-22T00:14:48.832Z,83.33
2023-03-22T00:15:20.716Z,81.67
2023-03-22T00:15:52.522Z,80.00
2023-03-22T00:16:24.731Z,78.33
2023-03-22T00:16:56.677Z,76.33
2023-03-22T00:17:28.636Z,77.00
2023-03-22T00:18:02.168Z,81.33
2023-03-22T00:18:33.917Z,83.00
2023-03-22T00:19:05.665Z,83.00
2023-03-22T00:19:37.565Z,82.00
2023-03-22T00:20:11.537Z,78.00
2023-03-22T00:20:54.604Z,72.33
2023-03-22T00:21:26.368Z,69.33
2023-03-22T00:21:58.131Z,69.33
2023-03-22T00:22:29.952Z,69.00
2023-03-22T00:23:01.712Z,70.00
2023-03-22T00:23:33.484Z,70.67
2023-03-22T00:24:05.452Z,71.00
2023-03-22T00:24:37.714Z,72.00
2023-03-22T00:25:10.555Z,72.00
2023-03-22T00:25:44.349Z,72.00
2023-03-22T00:26:17.501Z,72.00
2023-03-22T00:26:49.271Z,71.67
2023-03-22T00:27:21.140Z,70.33
2023-03-22T00:27:53.325Z,69.33
2023-03-22T00:28:25.419Z,68.33
2023-03-22T00:28:57.160Z,68.00
2023-03-22T00:29:28.942Z,67.00
2023-03-22T00:30:00.886Z,64.33
2023-03-22T00:30:32.605Z,60.67
2023-03-22T00:31:05.457Z,61.00
2023-03-22T00:31:37.240Z,59.67
2023-03-22T00:32:09.002Z,58.33
2023-03-22T00:32:42.558Z,59.00
2023-03-22T00:33:14.345Z,60.33
2023-03-22T00:33:46.154Z,61.00
2023-03-22T00:34:18.124Z,61.33
2023-03-22T00:34:49.981Z,62.00
2023-03-22T00:35:21.823Z,62.00
2023-03-22T00:36:13.828Z,61.67
2023-03-22T00:36:45.543Z,58.33
2023-03-22T00:37:18.032Z,57.67
2023-03-22T00:37:51.749Z,57.00
2023-03-22T00:38:35.844Z,55.00
2023-03-22T00:39:13.069Z,54.33
2023-03-22T00:39:45.027Z,55.00
2023-03-22T00:40:18.342Z,55.00
2023-03-22T00:40:50.221Z,56.00
2023-03-22T00:41:23.322Z,56.67
2023-03-22T00:41:55.130Z,57.00
2023-03-22T00:42:27.243Z,57.67
2023-03-22T00:42:59.431Z,58.00
2023-03-22T00:43:31.276Z,58.00
2023-03-22T00:44:02.997Z,59.00
2023-03-22T00:44:34.835Z,59.00
2023-03-22T00:45:09.016Z,59.00
2023-03-22T00:45:41.212Z,59.00
2023-03-22T00:46:14.555Z,60.00
2023-03-22T00:46:46.356Z,60.00
2023-03-22T00:47:18.267Z,60.00
2023-03-22T00:47:50.362Z,60.00
2023-03-22T00:48:22.809Z,60.00
2023-03-22T00:48:54.564Z,60.67
2023-03-22T00:49:27.332Z,61.00
2023-03-22T00:49:59.461Z,61.00
2023-03-22T00:50:31.232Z,61.00
2023-03-22T00:51:03.393Z,62.00
2023-03-22T00:51:35.124Z,62.33
2023-03-22T00:52:06.882Z,63.00
2023-03-22T00:52:38.661Z,63.00
2023-03-22T00:53:10.418Z,63.00
2023-03-22T00:53:43.654Z,63.00
2023-03-22T00:54:17.100Z,63.00
2023-03-22T00:54:48.946Z,63.00
2023-03-22T00:55:20.759Z,63.67
2023-03-22T00:55:52.580Z,63.67
2023-03-22T00:56:25.660Z,63.67
2023-03-22T00:56:57.374Z,63.67
2023-03-22T00:57:29.131Z,63.00
2023-03-22T00:58:01.081Z,63.67
2023-03-22T00:58:33.342Z,64.00
2023-03-22T00:59:05.258Z,64.00
2023-03-22T00:59:38.712Z,64.00
2023-03-22T01:00:16.207Z,64.00
2023-03-22T01:00:48.542Z,64.00
2023-03-22T01:01:20.546Z,63.33
2023-03-22T01:01:52.328Z,64.00
2023-03-22T01:02:29.687Z,64.00
2023-03-22T01:03:04.756Z,64.00
2023-03-22T01:03:36.674Z,63.67
2023-03-22T01:04:08.577Z,63.00
2023-03-22T01:04:47.981Z,63.00
2023-03-22T01:05:22.068Z,62.67
2023-03-22T01:05:56.789Z,61.00
2023-03-22T01:06:28.599Z,60.00
2023-03-22T01:07:02.146Z,59.67
2023-03-22T01:07:33.916Z,59.00
2023-03-22T01:08:09.278Z,58.33
2023-03-22T01:08:41.165Z,58.00
2023-03-22T01:09:15.066Z,58.00
2023-03-22T01:09:48.676Z,57.33
2023-03-22T01:10:20.497Z,56.33
2023-03-22T01:10:52.643Z,55.00
2023-03-22T01:11:24.694Z,55.00
2023-03-22T01:11:57.899Z,55.00
2023-03-22T01:12:29.664Z,55.00
2023-03-22T01:13:01.441Z,55.00
2023-03-22T01:13:33.599Z,55.00
2023-03-22T01:14:05.278Z,55.00
2023-03-22T01:14:37.059Z,55.00
2023-03-22T01:15:10.385Z,54.33
2023-03-22T01:15:42.235Z,54.33
2023-03-22T01:16:13.983Z,55.00
2023-03-22T01:16:45.827Z,55.00
2023-03-22T01:17:17.648Z,55.00
2023-03-22T01:17:49.426Z,55.00
2023-03-22T01:18:22.400Z,56.00
2023-03-22T01:18:54.158Z,56.00
2023-03-22T01:19:27.496Z,56.00
2023-03-22T01:19:59.380Z,56.00
2023-03-22T01:20:32.324Z,57.00
2023-03-22T01:21:04.415Z,57.33
2023-03-22T01:21:36.218Z,58.00
2023-03-22T01:22:08.957Z,58.67
2023-03-22T01:22:41.091Z,61.33
2023-03-22T01:23:12.863Z,68.33
2023-03-22T01:23:44.719Z,78.67
2023-03-22T01:24:16.911Z,83.33
2023-03-22T01:24:50.140Z,79.00
2023-03-22T01:25:21.938Z,76.67
2023-03-22T01:25:53.701Z,75.33
2023-03-22T01:26:25.490Z,74.33
2023-03-22T01:26:57.544Z,74.00
2023-03-22T01:27:29.288Z,73.00
2023-03-22T01:28:02.776Z,72.67
2023-03-22T01:28:34.558Z,71.67
2023-03-22T01:29:06.381Z,71.00
2023-03-22T01:29:38.182Z,69.67
2023-03-22T01:30:11.200Z,68.33
2023-03-22T01:30:43.170Z,67.00
2023-03-22T01:31:14.979Z,66.33
2023-03-22T01:31:46.748Z,66.00
2023-03-22T01:32:18.471Z,66.00
2023-03-22T01:32:50.342Z,65.67
2023-03-22T01:33:22.703Z,64.33
2023-03-22T01:33:54.441Z,63.00
2023-03-22T01:34:26.857Z,61.67
2023-03-22T01:34:58.818Z,61.00
2023-03-22T01:35:30.967Z,60.33
2023-03-22T01:36:02.748Z,59.67
2023-03-22T01:36:34.541Z,58.67
2023-03-22T01:37:06.309Z,58.00
2023-03-22T01:37:38.075Z,58.00
2023-03-22T01:38:09.928Z,58.00
2023-03-22T01:38:41.741Z,58.00
2023-03-22T01:39:13.578Z,58.00
2023-03-22T01:39:45.543Z,58.00
2023-03-22T01:40:17.980Z,57.67
2023-03-22T01:40:49.749Z,57.00
2023-03-22T01:41:22.162Z,57.00
2023-03-22T01:41:53.941Z,57.00
2023-03-22T01:42:26.705Z,57.00
2023-03-22T01:42:58.606Z,57.00
2023-03-22T01:43:30.625Z,57.00
2023-03-22T01:44:11.305Z,57.00
2023-03-22T01:44:47.104Z,57.00
2023-03-22T01:45:35.074Z,57.67
2023-03-22T01:46:06.876Z,58.00
2023-03-22T01:46:40.329Z,58.00
2023-03-22T01:47:12.139Z,58.00
2023-03-22T01:47:52.300Z,58.00
2023-03-22T01:48:35.798Z,58.00
2023-03-22T01:49:13.537Z,58.00
2023-03-22T01:49:45.428Z,58.00
2023-03-22T01:50:18.453Z,58.00
2023-03-22T01:51:15.351Z,59.00
2023-03-22T01:51:51.117Z,59.00
2023-03-22T01:52:22.898Z,59.00
2023-03-22T01:52:57.509Z,59.00
2023-03-22T01:53:34.139Z,59.33
2023-03-22T01:54:29.394Z,60.00
2023-03-22T01:55:01.929Z,60.00
2023-03-22T01:55:34.262Z,61.00
2023-03-22T01:56:06.522Z,61.00
2023-03-22T01:56:41.298Z,61.00
2023-03-22T01:57:13.590Z,61.00
2023-03-22T01:57:46.056Z,61.00
2023-03-22T01:58:18.343Z,61.67
2023-03-22T01:58:52.110Z,62.00
2023-03-22T01:59:25.206Z,62.00
2023-03-22T01:59:57.590Z,62.00
2023-03-22T02:00:29.800Z,61.00
2023-03-22T02:01:01.999Z,61.00
2023-03-22T02:01:35.454Z,61.00
2023-03-22T02:02:07.997Z,61.00
2023-03-22T02:02:40.170Z,61.00
2023-03-22T02:03:15.772Z,60.00
2023-03-22T02:04:03.157Z,60.00
2023-03-22T02:04:39.199Z,60.00
2023-03-22T02:05:12.383Z,60.00
2023-03-22T02:05:44.492Z,60.33
2023-03-22T02:06:18.039Z,61.00
2023-03-22T02:06:55.724Z,61.00
2023-03-22T02:07:28.000Z,61.00
2023-03-22T02:07:59.844Z,62.00
2023-03-22T02:08:33.625Z,62.00
2023-03-22T02:09:11.235Z,62.33
2023-03-22T02:09:43.481Z,64.00
2023-03-22T02:10:19.180Z,64.00
2023-03-22T02:10:52.046Z,64.00
2023-03-22T02:11:41.710Z,64.00
2023-03-22T02:12:39.610Z,65.00
2023-03-22T02:13:38.957Z,68.67
2023-03-22T02:14:48.817Z,71.00
2023-03-22T02:15:42.973Z,72.00
2023-03-22T02:16:38.282Z,72.00
2023-03-22T02:17:13.256Z,74.33
2023-03-22T02:17:51.424Z,79.33
2023-03-22T02:18:38.884Z,82.67
2023-03-22T02:19:42.389Z,82.00
2023-03-22T02:20:38.869Z,83.33
2023-03-22T02:21:40.842Z,88.33
2023-03-22T02:22:39.099Z,90.67
2023-03-22T02:23:22.879Z,89.00
2023-03-22T02:24:28.312Z,90.67
2023-03-22T02:25:33.950Z,111.67
2023-03-22T02:26:44.124Z,98.67
2023-03-22T02:27:54.253Z,95.00
2023-03-22T02:28:43.992Z,99.00
2023-03-22T02:29:39.808Z,98.67
2023-03-22T02:30:39.508Z,96.67
2023-03-22T02:31:39.296Z,92.00
2023-03-22T02:32:29.994Z,81.00
2023-03-22T02:33:19.789Z,78.00
2023-03-22T02:34:28.818Z,71.00
2023-03-22T02:35:32.023Z,53.33
2023-03-22T02:36:39.327Z,38.67
2023-03-22T02:37:33.922Z,38.33
2023-03-22T02:38:26.988Z,37.00
2023-03-22T02:39:08.490Z,36.33
2023-03-22T02:39:52.132Z,36.33
2023-03-22T02:40:41.704Z,36.67
2023-03-22T02:41:25.556Z,38.00
2023-03-22T02:42:03.142Z,41.00
2023-03-22T02:42:52.765Z,41.67
2023-03-22T02:43:48.532Z,44.33
2023-03-22T02:44:23.345Z,46.00
2023-03-22T02:44:57.952Z,46.00
2023-03-22T02:45:38.239Z,45.00
2023-03-22T02:46:23.607Z,44.00
2023-03-22T02:47:04.947Z,45.00
2023-03-22T02:47:39.283Z,44.00
2023-03-22T02:48:22.721Z,39.33
2023-03-22T02:49:02.757Z,36.00
2023-03-22T02:49:50.160Z,33.67
2023-03-22T02:50:46.628Z,26.33
2023-03-22T02:51:25.862Z,25.33
2023-03-22T02:52:39.418Z,31.33
2023-03-22T02:53:23.810Z,37.67
2023-03-22T02:54:08.361Z,38.00
2023-03-22T02:54:50.824Z,38.00
2023-03-22T02:55:52.225Z,37.67
2023-03-22T02:56:54.320Z,34.00
2023-03-22T02:57:44.052Z,28.00
2023-03-22T02:58:22.257Z,25.00
2023-03-22T02:58:59.640Z,23.67
2023-03-22T02:59:37.722Z,22.33
2023-03-22T03:00:14.170Z,19.67
2023-03-22T03:00:51.174Z,18.00
2023-03-22T03:01:29.861Z,18.67
2023-03-22T03:02:04.589Z,18.67
2023-03-22T03:02:41.581Z,18.33
2023-03-22T03:03:18.404Z,18.00
2023-03-22T03:03:55.208Z,18.00
2023-03-22T03:04:34.672Z,17.00
2023-03-22T03:05:08.681Z,17.33
2023-03-22T03:05:48.931Z,18.00
2023-03-22T03:06:25.848Z,19.00
2023-03-22T03:07:09.483Z,19.33
2023-03-22T03:07:46.760Z,20.00
2023-03-22T03:08:21.156Z,20.67
2023-03-22T03:08:54.617Z,21.00
2023-03-22T03:09:26.788Z,21.33
2023-03-22T03:09:58.967Z,21.33
2023-03-22T03:10:31.617Z,21.00
2023-03-22T03:11:03.552Z,21.00
2023-03-22T03:11:36.665Z,21.00
2023-03-22T03:12:23.729Z,22.00
2023-03-22T03:12:55.504Z,22.00
2023-03-22T03:13:27.619Z,22.00
2023-03-22T03:13:59.541Z,22.00
2023-03-22T03:14:32.777Z,22.00
2023-03-22T03:15:14.857Z,22.00
2023-03-22T03:15:52.797Z,22.00
2023-03-22T03:16:29.460Z,22.00
2023-03-22T03:17:13.310Z,22.00
2023-03-22T03:17:56.565Z,21.00
2023-03-22T03:19:05.625Z,20.00
2023-03-22T03:20:03.816Z,20.00
2023-03-22T03:21:07.569Z,20.00
2023-03-22T03:21:59.633Z,19.67
2023-03-22T03:23:08.590Z,19.00
2023-03-22T03:23:49.698Z,19.00
2023-03-22T03:24:31.749Z,19.00
2023-03-22T03:25:23.560Z,19.00
2023-03-22T03:25:58.050Z,20.00
2023-03-22T03:26:40.727Z,21.00
2023-03-22T03:27:23.677Z,21.00
2023-03-22T03:28:30.078Z,21.00
2023-03-22T03:29:05.466Z,21.00
2023-03-22T03:29:53.041Z,21.00
2023-03-22T03:30:33.893Z,21.00
2023-03-22T03:31:11.817Z,21.00
2023-03-22T03:32:07.604Z,21.00
2023-03-22T03:32:53.747Z,21.00
2023-03-22T03:33:33.205Z,21.33
2023-03-22T03:34:30.098Z,22.00
2023-03-22T03:35:10.972Z,22.00
2023-03-22T03:36:00.126Z,23.00
2023-03-22T03:36:37.924Z,23.00
2023-03-22T03:37:15.986Z,23.00
2023-03-22T03:37:54.030Z,23.33
2023-03-22T03:38:30.896Z,25.33
2023-03-22T03:39:08.050Z,26.67
2023-03-22T03:39:46.704Z,33.67
2023-03-22T03:40:24.757Z,90.33
2023-03-22T03:41:03.957Z,171.33
2023-03-22T03:41:37.104Z,272.67
2023-03-22T03:42:13.901Z,318.33
2023-03-22T03:42:51.969Z,342.33
2023-03-22T03:43:25.719Z,340.67
2023-03-22T03:43:59.554Z,339.67
2023-03-22T03:44:36.055Z,338.00
2023-03-22T03:45:09.145Z,337.00
2023-03-22T03:45:41.720Z,335.00
2023-03-22T03:46:14.734Z,333.67
2023-03-22T03:46:48.341Z,331.00
2023-03-22T03:47:21.058Z,333.00
2023-03-22T03:47:59.097Z,334.67
2023-03-22T03:48:35.071Z,333.67
2023-03-22T03:49:10.107Z,331.67
2023-03-22T03:49:42.279Z,331.00
2023-03-22T03:50:16.617Z,326.67
2023-03-22T03:50:52.502Z,326.67
2023-03-22T03:51:27.308Z,326.67
2023-03-22T03:52:00.119Z,325.33
2023-03-22T03:52:32.481Z,326.33
2023-03-22T03:53:04.450Z,327.00
2023-03-22T03:53:36.245Z,327.00
2023-03-22T03:54:08.027Z,326.33
2023-03-22T03:54:39.975Z,327.00
2023-03-22T03:55:11.930Z,328.33
2023-03-22T03:55:43.820Z,326.00
2023-03-22T03:56:15.723Z,327.67
2023-03-22T03:56:48.037Z,326.67
2023-03-22T03:57:19.804Z,325.00
2023-03-22T03:57:51.632Z,323.33
2023-03-22T03:58:23.493Z,325.33
2023-03-22T03:58:55.763Z,322.00
2023-03-22T03:59:27.569Z,322.67
2023-03-22T03:59:59.372Z,323.00
2023-03-22T04:00:31.285Z,328.00
2023-03-22T04:01:04.182Z,327.00
2023-03-22T04:01:36.529Z,329.33
2023-03-22T04:02:08.917Z,330.00
2023-03-22T04:02:44.158Z,396.33
2023-03-22T04:03:16.190Z,454.00
2023-03-22T04:03:50.747Z,447.67
2023-03-22T04:04:29.547Z,429.00
2023-03-22T04:05:01.654Z,428.00
2023-03-22T04:05:34.086Z,429.00
2023-03-22T04:06:06.555Z,413.67
2023-03-22T04:06:39.571Z,384.67
2023-03-22T04:07:11.569Z,371.67
2023-03-22T04:07:43.357Z,359.33
2023-03-22T04:08:15.407Z,338.67
2023-03-22T04:08:53.609Z,324.67
2023-03-22T04:09:28.053Z,318.00
2023-03-22T04:10:00.247Z,328.33
2023-03-22T04:10:32.016Z,331.00
2023-03-22T04:11:03.889Z,331.67
2023-03-22T04:11:36.108Z,331.00
2023-03-22T04:12:11.575Z,330.67
2023-03-22T04:12:43.297Z,328.67
2023-03-22T04:13:15.094Z,328.67
2023-03-22T04:13:46.905Z,329.67
2023-03-22T04:14:18.852Z,331.00
2023-03-22T04:14:50.686Z,331.33
2023-03-22T04:15:22.941Z,332.00
2023-03-22T04:15:57.276Z,333.00
2023-03-22T04:16:29.141Z,334.33
2023-03-22T04:17:01.317Z,335.67
2023-03-22T04:17:33.124Z,336.67
2023-03-22T04:18:05.144Z,338.67
2023-03-22T04:18:37.131Z,346.67
2023-03-22T04:19:08.965Z,354.00
2023-03-22T04:19:42.306Z,357.33
2023-03-22T04:20:14.634Z,359.67
2023-03-22T04:20:47.243Z,360.67
2023-03-22T04:21:19.885Z,364.00
2023-03-22T04:21:53.331Z,365.33
2023-03-22T04:22:26.413Z,368.33
2023-03-22T04:22:58.204Z,370.33
2023-03-22T04:23:29.992Z,370.00
2023-03-22T04:24:01.837Z,368.67
2023-03-22T04:24:33.608Z,369.33
2023-03-22T04:25:11.823Z,369.00
2023-03-22T04:25:43.826Z,368.00
2023-03-22T04:26:16.040Z,368.33
2023-03-22T04:26:48.109Z,380.67
2023-03-22T04:27:21.615Z,380.33
2023-03-22T04:27:55.918Z,375.00
2023-03-22T04:28:27.698Z,372.33
2023-03-22T04:28:59.733Z,371.00
2023-03-22T04:29:32.344Z,368.67
2023-03-22T04:30:05.956Z,366.67
2023-03-22T04:30:39.058Z,365.33
2023-03-22T04:31:11.048Z,365.00
2023-03-22T04:31:42.963Z,364.67
2023-03-22T04:32:23.038Z,363.00
2023-03-22T04:32:55.034Z,358.00
2023-03-22T04:33:26.759Z,355.33
2023-03-22T04:34:00.543Z,354.00
2023-03-22T04:34:32.663Z,352.33
2023-03-22T04:35:05.569Z,351.33
2023-03-22T04:35:37.392Z,351.67
2023-03-22T04:36:16.216Z,351.00
2023-03-22T04:36:48.052Z,350.67
2023-03-22T04:37:22.608Z,350.00
2023-03-22T04:37:54.441Z,349.67
2023-03-22T04:38:26.293Z,349.00
2023-03-22T04:38:58.333Z,348.00
2023-03-22T04:39:30.197Z,348.00
2023-03-22T04:40:02.155Z,348.00
2023-03-22T04:40:36.745Z,348.00
2023-03-22T04:41:09.068Z,347.00
2023-03-22T04:41:40.881Z,344.67
2023-03-22T04:42:13.143Z,342.33
2023-03-22T04:42:45.657Z,343.00
2023-03-22T04:43:19.007Z,343.67
2023-03-22T04:43:51.048Z,344.67
2023-03-22T04:44:22.893Z,345.33
2023-03-22T04:44:54.637Z,346.00
2023-03-22T04:45:29.338Z,346.67
2023-03-22T04:46:04.307Z,348.33
2023-03-22T04:46:37.214Z,350.33
2023-03-22T04:47:09.065Z,351.00
2023-03-22T04:47:40.937Z,351.00
2023-03-22T04:48:12.753Z,351.00
2023-03-22T04:48:44.727Z,350.67
2023-03-22T04:49:17.118Z,349.67
2023-03-22T04:49:48.942Z,349.00
2023-03-22T04:50:20.964Z,349.00
2023-03-22T04:50:53.519Z,347.67
2023-03-22T04:51:26.680Z,346.33
2023-03-22T04:51:58.492Z,345.00
2023-03-22T04:52:30.294Z,346.00
2023-03-22T04:53:02.058Z,346.00
2023-03-22T04:53:38.832Z,345.00
2023-03-22T04:54:10.646Z,344.67
2023-03-22T04:54:42.466Z,344.00
2023-03-22T04:55:14.266Z,344.00
2023-03-22T04:55:46.033Z,344.00
2023-03-22T04:56:18.101Z,344.00
2023-03-22T04:56:50.760Z,344.00
2023-03-22T04:57:22.804Z,343.00
2023-03-22T04:57:54.916Z,343.00
2023-03-22T04:58:27.769Z,342.67
2023-03-22T04:58:59.584Z,343.00
2023-03-22T04:59:31.376Z,342.67
2023-03-22T05:00:07.840Z,342.00
2023-03-22T05:00:42.516Z,342.00
2023-03-22T05:01:17.554Z,352.33
2023-03-22T05:01:51.657Z,365.33
2023-03-22T05:02:23.712Z,360.33
2023-03-22T05:02:56.582Z,360.33
2023-03-22T05:03:28.628Z,368.67
2023-03-22T05:04:00.552Z,364.67
2023-03-22T05:04:32.465Z,364.33
2023-03-22T05:05:04.823Z,364.67
2023-03-22T05:05:36.687Z,362.33
2023-03-22T05:06:10.215Z,360.00
2023-03-22T05:06:42.637Z,356.00
2023-03-22T05:07:14.459Z,353.33
2023-03-22T05:07:46.383Z,352.33
2023-03-22T05:08:18.659Z,350.00
2023-03-22T05:08:50.638Z,347.33
2023-03-22T05:09:23.627Z,346.00
2023-03-22T05:09:55.533Z,345.67
2023-03-22T05:10:27.331Z,344.67
2023-03-22T05:11:04.568Z,343.33
2023-03-22T05:11:37.159Z,343.00
2023-03-22T05:12:08.995Z,367.33
2023-03-22T05:12:41.007Z,396.33
2023-03-22T05:13:12.804Z,407.00
2023-03-22T05:13:44.630Z,400.00
2023-03-22T05:14:16.533Z,396.67
2023-03-22T05:14:48.445Z,386.67
2023-03-22T05:15:20.260Z,380.00
2023-03-22T05:15:52.289Z,391.00
2023-03-22T05:16:25.541Z,398.00
2023-03-22T05:16:57.725Z,424.33
2023-03-22T05:17:29.527Z,424.00
2023-03-22T05:18:01.340Z,416.33
2023-03-22T05:18:33.583Z,411.67
2023-03-22T05:19:06.759Z,405.00
2023-03-22T05:19:38.699Z,400.67
2023-03-22T05:20:11.728Z,397.00
2023-03-22T05:20:44.338Z,394.33
2023-03-22T05:21:22.087Z,392.33
2023-03-22T05:21:58.673Z,383.00
2023-03-22T05:22:30.472Z,371.00
2023-03-22T05:23:05.409Z,358.67
2023-03-22T05:23:37.202Z,354.00
2023-03-22T05:24:09.106Z,354.67
2023-03-22T05:24:40.876Z,352.67
2023-03-22T05:25:12.735Z,353.67
2023-03-22T05:25:45.320Z,351.33
2023-03-22T05:26:20.550Z,349.33
2023-03-22T05:26:54.023Z,346.67
2023-03-22T05:27:31.762Z,344.67
2023-03-22T05:28:04.293Z,349.67
2023-03-22T05:28:37.578Z,352.67
2023-03-22T05:29:10.974Z,354.33
2023-03-22T05:29:45.111Z,355.00
2023-03-22T05:30:17.033Z,355.00
2023-03-22T05:30:50.092Z,353.33
2023-03-22T05:31:22.603Z,354.00
2023-03-22T05:31:54.496Z,354.67
2023-03-22T05:32:29.418Z,356.00
2023-03-22T05:33:04.012Z,357.00
2023-03-22T05:33:35.984Z,358.33
2023-03-22T05:34:08.218Z,359.33
2023-03-22T05:34:42.886Z,360.67
2023-03-22T05:35:14.699Z,363.00
2023-03-22T05:35:46.597Z,364.67
2023-03-22T05:36:20.814Z,365.00
2023-03-22T05:36:52.632Z,366.00
2023-03-22T05:37:24.581Z,366.00
2023-03-22T05:37:57.663Z,366.00
2023-03-22T05:38:29.572Z,372.33
2023-03-22T05:39:01.505Z,385.33
2023-03-22T05:39:33.481Z,382.33
2023-03-22T05:40:10.026Z,380.00
2023-03-22T05:40:42.115Z,381.00
2023-03-22T05:41:14.832Z,381.67
2023-03-22T05:41:46.967Z,380.00
2023-03-22T05:42:18.765Z,379.33
2023-03-22T05:42:50.987Z,378.67
2023-03-22T05:43:22.895Z,377.67
2023-03-22T05:43:55.176Z,376.67
2023-03-22T05:44:27.029Z,375.33
2023-03-22T05:44:58.797Z,374.33
2023-03-22T05:45:32.537Z,372.67
2023-03-22T05:46:08.834Z,370.00
2023-03-22T05:46:40.957Z,369.67
2023-03-22T05:47:12.910Z,369.00
2023-03-22T05:47:44.829Z,369.00
2023-03-22T05:48:17.212Z,369.00
2023-03-22T05:48:49.070Z,369.00
2023-03-22T05:49:20.922Z,369.67
2023-03-22T05:49:53.113Z,370.67
2023-03-22T05:50:25.443Z,371.33
2023-03-22T05:50:57.248Z,403.00
2023-03-22T05:51:29.923Z,431.67
2023-03-22T05:52:04.409Z,433.00
2023-03-22T05:52:36.840Z,446.00
2023-03-22T05:53:08.748Z,443.00
2023-03-22T05:53:40.720Z,435.67
2023-03-22T05:54:12.480Z,434.33
2023-03-22T05:54:44.287Z,430.33
2023-03-22T05:55:19.938Z,423.67
2023-03-22T05:55:53.071Z,418.00
2023-03-22T05:56:25.972Z,415.00
2023-03-22T05:56:58.875Z,422.00
2023-03-22T05:57:30.662Z,423.33
2023-03-22T05:58:03.288Z,417.67
2023-03-22T05:58:35.227Z,415.00
2023-03-22T05:59:07.478Z,411.00
2023-03-22T05:59:39.304Z,415.00
2023-03-22T06:00:15.253Z,422.00
2023-03-22T06:00:50.007Z,417.33
2023-03-22T06:01:23.221Z,416.00
2023-03-22T06:01:55.536Z,415.67
2023-03-22T06:02:27.681Z,417.67
2023-03-22T06:03:03.965Z,417.33
2023-03-22T06:03:36.036Z,416.33
2023-03-22T06:04:07.917Z,416.67
2023-03-22T06:04:41.785Z,432.33
2023-03-22T06:05:16.085Z,441.00
2023-03-22T06:05:50.810Z,438.00
2023-03-22T06:06:24.017Z,430.33
2023-03-22T06:06:56.137Z,427.67
2023-03-22T06:07:27.951Z,426.33
2023-03-22T06:08:00.423Z,425.67
2023-03-22T06:08:33.815Z,424.67
2023-03-22T06:09:16.569Z,422.67
2023-03-22T06:09:50.338Z,419.00
2023-03-22T06:10:23.072Z,416.67
2023-03-22T06:10:55.056Z,415.33
2023-03-22T06:11:26.891Z,415.00
2023-03-22T06:11:59.303Z,415.00
2023-03-22T06:12:31.591Z,416.33
2023-03-22T06:13:03.433Z,418.33
2023-03-22T06:13:35.478Z,422.00
2023-03-22T06:14:07.284Z,423.33
2023-03-22T06:14:39.129Z,428.33
2023-03-22T06:15:11.945Z,443.67
2023-03-22T06:15:43.727Z,480.00
2023-03-22T06:16:16.278Z,491.67
2023-03-22T06:16:48.256Z,481.33
2023-03-22T06:17:20.339Z,470.33
2023-03-22T06:17:52.180Z,462.33
2023-03-22T06:18:24.057Z,458.33
2023-03-22T06:18:56.111Z,456.00
2023-03-22T06:19:28.132Z,453.33
2023-03-22T06:20:00.093Z,455.67
2023-03-22T06:20:31.958Z,457.00
2023-03-22T06:21:03.914Z,459.33
2023-03-22T06:21:35.798Z,462.67
2023-03-22T06:22:07.666Z,463.00
2023-03-22T06:22:40.419Z,460.33
2023-03-22T06:23:12.300Z,458.67
2023-03-22T06:23:44.166Z,457.67
2023-03-22T06:24:16.232Z,457.00
2023-03-22T06:24:49.587Z,456.33
2023-03-22T06:25:21.368Z,456.00
2023-03-22T06:25:53.309Z,455.00
2023-03-22T06:26:25.109Z,454.67
2023-03-22T06:26:56.957Z,454.00
2023-03-22T06:27:29.266Z,453.67
2023-03-22T06:28:02.805Z,453.00
2023-03-22T06:28:34.577Z,452.00
2023-03-22T06:29:06.639Z,451.33
2023-03-22T06:29:38.540Z,450.33
2023-03-22T06:30:10.542Z,448.33
2023-03-22T06:30:42.777Z,448.00
2023-03-22T06:31:14.769Z,448.00
2023-03-22T06:31:47.965Z,448.00
2023-03-22T06:32:21.009Z,449.67
2023-03-22T06:32:52.962Z,452.33
2023-03-22T06:33:24.847Z,457.33
2023-03-22T06:33:56.716Z,460.00
2023-03-22T06:34:28.911Z,460.00
2023-03-22T06:35:00.789Z,459.33
2023-03-22T06:35:33.691Z,459.00
2023-03-22T06:36:06.167Z,458.33
2023-03-22T06:36:37.975Z,457.67
2023-03-22T06:37:09.746Z,456.33
2023-03-22T06:37:41.954Z,454.67
2023-03-22T06:38:13.772Z,453.67
2023-03-22T06:38:45.634Z,452.33
2023-03-22T06:39:17.437Z,451.33
2023-03-22T06:39:49.438Z,451.00
2023-03-22T06:40:21.352Z,451.00
2023-03-22T06:40:53.185Z,451.00
2023-03-22T06:41:25.413Z,450.33
2023-03-22T06:41:57.294Z,450.00
2023-03-22T06:42:31.048Z,450.00
2023-03-22T06:43:06.845Z,450.00
2023-03-22T06:43:39.073Z,449.67
2023-03-22T06:44:11.154Z,448.67
2023-03-22T06:44:44.699Z,447.67
2023-03-22T06:45:16.955Z,446.33
2023-03-22T06:45:49.067Z,445.33
2023-03-22T06:46:20.925Z,444.67
2023-03-22T06:46:52.796Z,444.00
2023-03-22T06:47:25.029Z,443.33
2023-03-22T06:47:56.906Z,443.00
2023-03-22T06:48:28.824Z,443.00
2023-03-22T06:49:00.869Z,444.00
2023-03-22T06:49:32.980Z,444.33
2023-03-22T06:50:23.597Z,445.00
2023-03-22T06:50:55.514Z,445.33
2023-03-22T06:51:27.357Z,446.00
2023-03-22T06:52:02.131Z,446.67
2023-03-22T06:52:34.005Z,447.00
2023-03-22T06:53:06.513Z,447.00
2023-03-22T06:53:38.382Z,447.67
2023-03-22T06:54:12.743Z,448.00
2023-03-22T06:54:45.361Z,450.33
2023-03-22T06:55:17.189Z,460.33
2023-03-22T06:55:49.176Z,466.00
2023-03-22T06:56:21.033Z,469.67
2023-03-22T06:56:52.874Z,471.67
2023-03-22T06:57:24.928Z,472.00
2023-03-22T06:57:56.727Z,470.00
2023-03-22T06:58:28.543Z,469.67
2023-03-22T06:59:00.505Z,468.33
2023-03-22T06:59:32.260Z,467.00
2023-03-22T07:00:05.393Z,466.00
2023-03-22T07:00:39.089Z,465.33
2023-03-22T07:01:11.377Z,466.33
2023-03-22T07:01:43.306Z,467.00
2023-03-22T07:02:15.566Z,466.67
2023-03-22T07:02:47.409Z,466.00
2023-03-22T07:03:19.241Z,466.00
2023-03-22T07:03:51.924Z,468.33
2023-03-22T07:04:25.174Z,468.67
2023-03-22T07:04:57.116Z,468.00
2023-03-22T07:05:29.307Z,467.00
2023-03-22T07:06:06.081Z,467.00
2023-03-22T07:06:37.908Z,466.00
2023-03-22T07:07:09.795Z,465.33
2023-03-22T07:07:44.328Z,464.33
2023-03-22T07:08:16.843Z,462.00
2023-03-22T07:08:50.742Z,459.00
2023-03-22T07:09:25.031Z,456.00
2023-03-22T07:09:57.227Z,453.00
2023-03-22T07:10:30.017Z,450.67
2023-03-22T07:11:01.982Z,448.33
2023-03-22T07:11:34.175Z,448.00
2023-03-22T07:12:07.143Z,448.00
2023-03-22T07:12:39.286Z,449.00
2023-03-22T07:13:11.250Z,449.00
2023-03-22T07:13:43.242Z,449.00
2023-03-22T07:14:15.076Z,449.00
2023-03-22T07:14:46.976Z,449.00
2023-03-22T07:15:20.313Z,449.00
2023-03-22T07:16:00.261Z,449.00
2023-03-22T07:16:32.164Z,449.00
2023-03-22T07:17:22.561Z,448.67
2023-03-22T07:17:54.392Z,448.00
2023-03-22T07:18:26.720Z,447.67
2023-03-22T07:18:58.809Z,447.00
2023-03-22T07:19:32.003Z,447.00
2023-03-22T07:20:04.273Z,446.00
2023-03-22T07:20:41.642Z,445.33
2023-03-22T07:21:14.194Z,444.00
2023-03-22T07:21:46.147Z,444.00
2023-03-22T07:22:18.071Z,444.33
2023-03-22T07:22:51.003Z,445.00
2023-03-22T07:23:22.992Z,445.00